sensor_id;sensor_type;location;lat;lon;timestamp;P1;durP1;ratioP1;P2;durP2;ratioP2
53263;SDS011;39153;52.680;6.172;2022-07-11T00:02:06;5.25;;;1.50;;
53263;SDS011;39153;52.680;6.172;2022-07-11T00:04:33;3.67;;;1.33;;
53263;SDS011;39153;52.680;6.172;2022-07-11T00:07:00;3.03;;;1.40;;
53263;SDS011;39153;52.680;6.172;2022-07-11T00:09:27;4.15;;;1.40;;
53263;SDS011;39153;52.680;6.172;2022-07-11T00:11:53;5.13;;;1.50;;
53263;SDS011;39153;52.680;6.172;2022-07-11T00:14:19;8.05;;;1.42;;
53263;SDS011;39153;52.680;6.172;2022-07-11T00:16:46;4.15;;;1.60;;
53263;SDS011;39153;52.680;6.172;2022-07-11T00:19:13;4.03;;;1.50;;
53263;SDS011;39153;52.680;6.172;2022-07-11T00:21:38;3.60;;;1.63;;
53263;SDS011;39153;52.680;6.172;2022-07-11T00:24:05;4.57;;;1.85;;
53263;SDS011;39153;52.680;6.172;2022-07-11T00:26:34;8.15;;;1.83;;
53263;SDS011;39153;52.680;6.172;2022-07-11T00:29:00;7.25;;;1.90;;
53263;SDS011;39153;52.680;6.172;2022-07-11T00:31:26;4.78;;;1.83;;
53263;SDS011;39153;52.680;6.172;2022-07-11T00:33:51;3.95;;;1.60;;
53263;SDS011;39153;52.680;6.172;2022-07-11T00:36:17;10.15;;;1.95;;
53263;SDS011;39153;52.680;6.172;2022-07-11T00:38:43;5.30;;;1.70;;
53263;SDS011;39153;52.680;6.172;2022-07-11T00:41:08;4.93;;;2.00;;
53263;SDS011;39153;52.680;6.172;2022-07-11T00:43:36;3.85;;;1.80;;
53263;SDS011;39153;52.680;6.172;2022-07-11T00:46:03;5.07;;;1.80;;
53263;SDS011;39153;52.680;6.172;2022-07-11T00:48:30;4.07;;;1.75;;
53263;SDS011;39153;52.680;6.172;2022-07-11T00:50:56;3.90;;;1.67;;
53263;SDS011;39153;52.680;6.172;2022-07-11T00:53:22;3.80;;;1.60;;
53263;SDS011;39153;52.680;6.172;2022-07-11T00:55:49;3.60;;;1.40;;
53263;SDS011;39153;52.680;6.172;2022-07-11T00:58:19;3.30;;;1.70;;
53263;SDS011;39153;52.680;6.172;2022-07-11T01:00:45;5.60;;;2.10;;
53263;SDS011;39153;52.680;6.172;2022-07-11T01:03:11;3.05;;;1.50;;
53263;SDS011;39153;52.680;6.172;2022-07-11T01:05:37;3.17;;;1.58;;
53263;SDS011;39153;52.680;6.172;2022-07-11T01:08:02;4.20;;;1.83;;
53263;SDS011;39153;52.680;6.172;2022-07-11T01:10:28;3.60;;;1.65;;
53263;SDS011;39153;52.680;6.172;2022-07-11T01:12:54;4.82;;;1.60;;
53263;SDS011;39153;52.680;6.172;2022-07-11T01:15:20;3.80;;;1.70;;
53263;SDS011;39153;52.680;6.172;2022-07-11T01:17:46;4.15;;;1.80;;
53263;SDS011;39153;52.680;6.172;2022-07-11T01:20:11;4.60;;;1.80;;
53263;SDS011;39153;52.680;6.172;2022-07-11T01:22:43;2.63;;;1.73;;
53263;SDS011;39153;52.680;6.172;2022-07-11T01:25:14;3.50;;;1.60;;
53263;SDS011;39153;52.680;6.172;2022-07-11T01:27:55;6.28;;;2.45;;
53263;SDS011;39153;52.680;6.172;2022-07-11T01:30:25;3.35;;;1.88;;
53263;SDS011;39153;52.680;6.172;2022-07-11T01:32:52;2.72;;;1.73;;
53263;SDS011;39153;52.680;6.172;2022-07-11T01:35:19;4.28;;;1.58;;
53263;SDS011;39153;52.680;6.172;2022-07-11T01:37:45;3.97;;;1.92;;
53263;SDS011;39153;52.680;6.172;2022-07-11T01:40:11;4.15;;;2.10;;
53263;SDS011;39153;52.680;6.172;2022-07-11T01:42:36;4.90;;;2.28;;
53263;SDS011;39153;52.680;6.172;2022-07-11T01:45:02;6.38;;;2.55;;
53263;SDS011;39153;52.680;6.172;2022-07-11T01:47:28;5.78;;;2.05;;
53263;SDS011;39153;52.680;6.172;2022-07-11T01:49:54;5.07;;;2.28;;
53263;SDS011;39153;52.680;6.172;2022-07-11T01:52:20;3.50;;;1.98;;
53263;SDS011;39153;52.680;6.172;2022-07-11T01:54:46;5.05;;;1.90;;
53263;SDS011;39153;52.680;6.172;2022-07-11T01:57:12;5.30;;;2.10;;
53263;SDS011;39153;52.680;6.172;2022-07-11T01:59:38;5.45;;;2.00;;
53263;SDS011;39153;52.680;6.172;2022-07-11T02:02:04;5.60;;;2.40;;
53263;SDS011;39153;52.680;6.172;2022-07-11T02:04:30;5.72;;;2.25;;
53263;SDS011;39153;52.680;6.172;2022-07-11T02:06:56;4.35;;;2.40;;
53263;SDS011;39153;52.680;6.172;2022-07-11T02:09:22;4.35;;;2.30;;
53263;SDS011;39153;52.680;6.172;2022-07-11T02:11:48;5.68;;;2.70;;
53263;SDS011;39153;52.680;6.172;2022-07-11T02:14:13;7.68;;;2.60;;
53263;SDS011;39153;52.680;6.172;2022-07-11T02:16:39;5.10;;;2.80;;
53263;SDS011;39153;52.680;6.172;2022-07-11T02:19:05;5.47;;;2.42;;
53263;SDS011;39153;52.680;6.172;2022-07-11T02:21:31;5.45;;;3.10;;
53263;SDS011;39153;52.680;6.172;2022-07-11T02:23:57;5.97;;;2.83;;
53263;SDS011;39153;52.680;6.172;2022-07-11T02:26:23;5.28;;;2.80;;
53263;SDS011;39153;52.680;6.172;2022-07-11T02:28:49;4.90;;;2.60;;
53263;SDS011;39153;52.680;6.172;2022-07-11T02:31:15;5.75;;;2.38;;
53263;SDS011;39153;52.680;6.172;2022-07-11T02:33:40;6.28;;;2.72;;
53263;SDS011;39153;52.680;6.172;2022-07-11T02:36:06;6.47;;;2.83;;
53263;SDS011;39153;52.680;6.172;2022-07-11T02:38:33;7.32;;;2.80;;
53263;SDS011;39153;52.680;6.172;2022-07-11T02:41:01;5.03;;;2.75;;
53263;SDS011;39153;52.680;6.172;2022-07-11T02:43:27;7.50;;;3.10;;
53263;SDS011;39153;52.680;6.172;2022-07-11T02:45:54;5.25;;;2.45;;
53263;SDS011;39153;52.680;6.172;2022-07-11T02:48:20;5.80;;;2.88;;
53263;SDS011;39153;52.680;6.172;2022-07-11T02:50:46;7.88;;;3.08;;
53263;SDS011;39153;52.680;6.172;2022-07-11T02:53:12;7.20;;;2.72;;
53263;SDS011;39153;52.680;6.172;2022-07-11T02:55:38;6.95;;;2.97;;
53263;SDS011;39153;52.680;6.172;2022-07-11T02:58:04;5.70;;;2.67;;
53263;SDS011;39153;52.680;6.172;2022-07-11T03:00:30;5.05;;;2.80;;
53263;SDS011;39153;52.680;6.172;2022-07-11T03:02:56;6.40;;;3.28;;
53263;SDS011;39153;52.680;6.172;2022-07-11T03:05:22;9.15;;;3.50;;
53263;SDS011;39153;52.680;6.172;2022-07-11T03:07:47;6.00;;;3.22;;
53263;SDS011;39153;52.680;6.172;2022-07-11T03:10:14;9.80;;;3.50;;
53263;SDS011;39153;52.680;6.172;2022-07-11T03:12:40;9.30;;;3.70;;
53263;SDS011;39153;52.680;6.172;2022-07-11T03:15:06;8.05;;;3.08;;
53263;SDS011;39153;52.680;6.172;2022-07-11T03:17:33;8.32;;;3.08;;
53263;SDS011;39153;52.680;6.172;2022-07-11T03:20:00;7.85;;;3.22;;
53263;SDS011;39153;52.680;6.172;2022-07-11T03:22:27;6.72;;;4.00;;
53263;SDS011;39153;52.680;6.172;2022-07-11T03:24:53;10.35;;;3.92;;
53263;SDS011;39153;52.680;6.172;2022-07-11T03:27:18;9.75;;;4.10;;
53263;SDS011;39153;52.680;6.172;2022-07-11T03:29:44;6.18;;;3.90;;
53263;SDS011;39153;52.680;6.172;2022-07-11T03:32:10;8.10;;;3.72;;
53263;SDS011;39153;52.680;6.172;2022-07-11T03:34:35;6.72;;;3.65;;
53263;SDS011;39153;52.680;6.172;2022-07-11T03:37:02;7.00;;;3.90;;
53263;SDS011;39153;52.680;6.172;2022-07-11T03:39:27;6.60;;;3.58;;
53263;SDS011;39153;52.680;6.172;2022-07-11T03:41:53;7.45;;;3.70;;
53263;SDS011;39153;52.680;6.172;2022-07-11T03:44:19;7.80;;;3.78;;
53263;SDS011;39153;52.680;6.172;2022-07-11T03:46:45;7.80;;;3.97;;
53263;SDS011;39153;52.680;6.172;2022-07-11T03:49:11;7.95;;;3.47;;
53263;SDS011;39153;52.680;6.172;2022-07-11T03:51:36;11.75;;;4.35;;
53263;SDS011;39153;52.680;6.172;2022-07-11T03:54:02;6.72;;;3.53;;
53263;SDS011;39153;52.680;6.172;2022-07-11T03:56:28;8.50;;;3.78;;
53263;SDS011;39153;52.680;6.172;2022-07-11T03:58:54;7.15;;;3.88;;
53263;SDS011;39153;52.680;6.172;2022-07-11T04:01:20;8.93;;;4.43;;
53263;SDS011;39153;52.680;6.172;2022-07-11T04:03:46;6.15;;;4.00;;
53263;SDS011;39153;52.680;6.172;2022-07-11T04:06:12;6.25;;;3.60;;
53263;SDS011;39153;52.680;6.172;2022-07-11T04:08:39;8.60;;;3.78;;
53263;SDS011;39153;52.680;6.172;2022-07-11T04:11:05;6.03;;;4.13;;
53263;SDS011;39153;52.680;6.172;2022-07-11T04:13:31;8.98;;;3.83;;
53263;SDS011;39153;52.680;6.172;2022-07-11T04:15:56;8.10;;;4.28;;
53263;SDS011;39153;52.680;6.172;2022-07-11T04:18:22;7.70;;;4.20;;
53263;SDS011;39153;52.680;6.172;2022-07-11T04:20:48;8.20;;;4.53;;
53263;SDS011;39153;52.680;6.172;2022-07-11T04:23:14;5.82;;;3.70;;
53263;SDS011;39153;52.680;6.172;2022-07-11T04:25:41;7.25;;;3.90;;
53263;SDS011;39153;52.680;6.172;2022-07-11T04:28:06;7.47;;;3.92;;
53263;SDS011;39153;52.680;6.172;2022-07-11T04:30:32;8.30;;;4.00;;
53263;SDS011;39153;52.680;6.172;2022-07-11T04:32:58;7.20;;;3.38;;
53263;SDS011;39153;52.680;6.172;2022-07-11T04:35:25;5.75;;;2.90;;
53263;SDS011;39153;52.680;6.172;2022-07-11T04:37:52;4.55;;;2.65;;
53263;SDS011;39153;52.680;6.172;2022-07-11T04:40:18;5.45;;;2.30;;
53263;SDS011;39153;52.680;6.172;2022-07-11T04:42:46;5.38;;;2.70;;
53263;SDS011;39153;52.680;6.172;2022-07-11T04:45:11;4.35;;;2.15;;
53263;SDS011;39153;52.680;6.172;2022-07-11T04:47:37;5.53;;;2.45;;
53263;SDS011;39153;52.680;6.172;2022-07-11T04:50:03;9.27;;;3.53;;
53263;SDS011;39153;52.680;6.172;2022-07-11T04:52:29;9.13;;;3.00;;
53263;SDS011;39153;52.680;6.172;2022-07-11T04:54:55;6.55;;;3.30;;
53263;SDS011;39153;52.680;6.172;2022-07-11T04:57:21;5.90;;;2.65;;
53263;SDS011;39153;52.680;6.172;2022-07-11T04:59:46;6.07;;;2.25;;
53263;SDS011;39153;52.680;6.172;2022-07-11T05:02:12;7.28;;;2.53;;
53263;SDS011;39153;52.680;6.172;2022-07-11T05:04:38;6.57;;;2.65;;
53263;SDS011;39153;52.680;6.172;2022-07-11T05:07:03;8.95;;;3.47;;
53263;SDS011;39153;52.680;6.172;2022-07-11T05:09:29;9.85;;;2.97;;
53263;SDS011;39153;52.680;6.172;2022-07-11T05:11:55;7.80;;;2.67;;
53263;SDS011;39153;52.680;6.172;2022-07-11T05:14:21;6.60;;;2.47;;
53263;SDS011;39153;52.680;6.172;2022-07-11T05:16:47;5.25;;;2.00;;
53263;SDS011;39153;52.680;6.172;2022-07-11T05:19:12;4.78;;;1.95;;
53263;SDS011;39153;52.680;6.172;2022-07-11T05:21:38;3.95;;;1.63;;
53263;SDS011;39153;52.680;6.172;2022-07-11T05:24:03;3.53;;;1.67;;
53263;SDS011;39153;52.680;6.172;2022-07-11T05:26:29;6.72;;;2.28;;
53263;SDS011;39153;52.680;6.172;2022-07-11T05:28:55;6.05;;;2.28;;
53263;SDS011;39153;52.680;6.172;2022-07-11T05:31:21;6.32;;;2.20;;
53263;SDS011;39153;52.680;6.172;2022-07-11T05:33:47;3.88;;;1.95;;
53263;SDS011;39153;52.680;6.172;2022-07-11T05:36:13;5.05;;;2.05;;
53263;SDS011;39153;52.680;6.172;2022-07-11T05:38:39;3.50;;;1.73;;
53263;SDS011;39153;52.680;6.172;2022-07-11T05:41:04;4.18;;;1.30;;
53263;SDS011;39153;52.680;6.172;2022-07-11T05:43:30;2.47;;;1.15;;
53263;SDS011;39153;52.680;6.172;2022-07-11T05:45:56;4.35;;;1.70;;
53263;SDS011;39153;52.680;6.172;2022-07-11T05:48:21;3.08;;;1.10;;
53263;SDS011;39153;52.680;6.172;2022-07-11T05:50:47;2.30;;;0.93;;
53263;SDS011;39153;52.680;6.172;2022-07-11T05:53:13;2.42;;;0.90;;
53263;SDS011;39153;52.680;6.172;2022-07-11T05:55:40;2.33;;;0.70;;
53263;SDS011;39153;52.680;6.172;2022-07-11T05:58:05;4.43;;;0.95;;
53263;SDS011;39153;52.680;6.172;2022-07-11T06:00:31;4.55;;;1.40;;
53263;SDS011;39153;52.680;6.172;2022-07-11T06:02:57;6.57;;;1.75;;
53263;SDS011;39153;52.680;6.172;2022-07-11T06:05:23;3.42;;;1.27;;
53263;SDS011;39153;52.680;6.172;2022-07-11T06:07:48;5.22;;;1.05;;
53263;SDS011;39153;52.680;6.172;2022-07-11T06:10:33;4.88;;;1.10;;
53263;SDS011;39153;52.680;6.172;2022-07-11T06:12:58;3.53;;;1.30;;
53263;SDS011;39153;52.680;6.172;2022-07-11T06:15:24;4.15;;;1.27;;
53263;SDS011;39153;52.680;6.172;2022-07-11T06:17:50;3.53;;;0.93;;
53263;SDS011;39153;52.680;6.172;2022-07-11T06:20:16;2.55;;;1.00;;
53263;SDS011;39153;52.680;6.172;2022-07-11T06:22:42;1.60;;;0.80;;
53263;SDS011;39153;52.680;6.172;2022-07-11T06:25:08;2.20;;;0.77;;
53263;SDS011;39153;52.680;6.172;2022-07-11T06:27:34;3.20;;;1.00;;
53263;SDS011;39153;52.680;6.172;2022-07-11T06:30:01;3.22;;;0.95;;
53263;SDS011;39153;52.680;6.172;2022-07-11T06:32:27;1.40;;;0.68;;
53263;SDS011;39153;52.680;6.172;2022-07-11T06:34:53;3.03;;;0.70;;
53263;SDS011;39153;52.680;6.172;2022-07-11T06:37:19;2.13;;;0.73;;
53263;SDS011;39153;52.680;6.172;2022-07-11T06:39:44;1.40;;;0.60;;
53263;SDS011;39153;52.680;6.172;2022-07-11T06:42:10;1.98;;;0.70;;
53263;SDS011;39153;52.680;6.172;2022-07-11T06:44:36;2.40;;;0.93;;
53263;SDS011;39153;52.680;6.172;2022-07-11T06:47:01;2.30;;;0.90;;
53263;SDS011;39153;52.680;6.172;2022-07-11T06:49:27;2.70;;;0.85;;
53263;SDS011;39153;52.680;6.172;2022-07-11T06:51:53;3.00;;;0.82;;
53263;SDS011;39153;52.680;6.172;2022-07-11T06:54:18;4.63;;;0.70;;
53263;SDS011;39153;52.680;6.172;2022-07-11T06:56:44;2.13;;;0.88;;
53263;SDS011;39153;52.680;6.172;2022-07-11T06:59:10;1.48;;;0.57;;
53263;SDS011;39153;52.680;6.172;2022-07-11T07:01:35;1.90;;;0.70;;
53263;SDS011;39153;52.680;6.172;2022-07-11T07:04:01;3.63;;;0.73;;
53263;SDS011;39153;52.680;6.172;2022-07-11T07:06:27;2.65;;;0.80;;
53263;SDS011;39153;52.680;6.172;2022-07-11T07:08:52;3.83;;;0.88;;
53263;SDS011;39153;52.680;6.172;2022-07-11T07:11:18;3.00;;;0.80;;
53263;SDS011;39153;52.680;6.172;2022-07-11T07:13:44;1.73;;;0.68;;
53263;SDS011;39153;52.680;6.172;2022-07-11T07:16:10;2.75;;;0.80;;
53263;SDS011;39153;52.680;6.172;2022-07-11T07:18:36;3.97;;;0.90;;
53263;SDS011;39153;52.680;6.172;2022-07-11T07:21:05;2.80;;;0.70;;
53263;SDS011;39153;52.680;6.172;2022-07-11T07:23:31;1.75;;;0.60;;
53263;SDS011;39153;52.680;6.172;2022-07-11T07:25:57;2.50;;;0.70;;
53263;SDS011;39153;52.680;6.172;2022-07-11T07:28:23;2.55;;;0.57;;
53263;SDS011;39153;52.680;6.172;2022-07-11T07:30:49;2.92;;;0.55;;
53263;SDS011;39153;52.680;6.172;2022-07-11T07:33:14;8.40;;;1.40;;
53263;SDS011;39153;52.680;6.172;2022-07-11T07:35:40;8.20;;;1.45;;
53263;SDS011;39153;52.680;6.172;2022-07-11T07:38:06;4.22;;;0.90;;
53263;SDS011;39153;52.680;6.172;2022-07-11T07:40:32;2.80;;;0.65;;
53263;SDS011;39153;52.680;6.172;2022-07-11T07:42:58;4.47;;;1.05;;
53263;SDS011;39153;52.680;6.172;2022-07-11T07:45:24;1.80;;;0.60;;
53263;SDS011;39153;52.680;6.172;2022-07-11T07:47:50;1.42;;;0.40;;
53263;SDS011;39153;52.680;6.172;2022-07-11T07:50:15;1.63;;;0.50;;
53263;SDS011;39153;52.680;6.172;2022-07-11T07:52:41;1.17;;;0.45;;
53263;SDS011;39153;52.680;6.172;2022-07-11T07:55:07;1.08;;;0.43;;
53263;SDS011;39153;52.680;6.172;2022-07-11T07:57:33;1.75;;;0.57;;
53263;SDS011;39153;52.680;6.172;2022-07-11T07:59:59;1.65;;;0.52;;
53263;SDS011;39153;52.680;6.172;2022-07-11T08:02:43;1.33;;;0.60;;
53263;SDS011;39153;52.680;6.172;2022-07-11T08:05:09;1.52;;;0.40;;
53263;SDS011;39153;52.680;6.172;2022-07-11T08:07:35;3.95;;;0.60;;
53263;SDS011;39153;52.680;6.172;2022-07-11T08:10:04;2.40;;;0.90;;
53263;SDS011;39153;52.680;6.172;2022-07-11T08:12:30;1.85;;;0.50;;
53263;SDS011;39153;52.680;6.172;2022-07-11T08:14:55;2.15;;;0.32;;
53263;SDS011;39153;52.680;6.172;2022-07-11T08:17:21;0.93;;;0.38;;
53263;SDS011;39153;52.680;6.172;2022-07-11T08:19:47;1.20;;;0.60;;
53263;SDS011;39153;52.680;6.172;2022-07-11T08:22:12;1.42;;;0.40;;
53263;SDS011;39153;52.680;6.172;2022-07-11T08:24:38;2.10;;;0.68;;
53263;SDS011;39153;52.680;6.172;2022-07-11T08:27:04;3.92;;;1.05;;
53263;SDS011;39153;52.680;6.172;2022-07-11T08:29:29;1.88;;;0.70;;
53263;SDS011;39153;52.680;6.172;2022-07-11T08:31:55;1.02;;;0.30;;
53263;SDS011;39153;52.680;6.172;2022-07-11T08:34:21;0.65;;;0.40;;
53263;SDS011;39153;52.680;6.172;2022-07-11T08:36:46;0.63;;;0.28;;
53263;SDS011;39153;52.680;6.172;2022-07-11T08:39:12;2.13;;;0.30;;
53263;SDS011;39153;52.680;6.172;2022-07-11T08:41:41;1.25;;;0.43;;
53263;SDS011;39153;52.680;6.172;2022-07-11T08:44:08;2.63;;;0.35;;
53263;SDS011;39153;52.680;6.172;2022-07-11T08:46:34;0.80;;;0.40;;
53263;SDS011;39153;52.680;6.172;2022-07-11T08:49:01;1.80;;;0.50;;
53263;SDS011;39153;52.680;6.172;2022-07-11T08:51:28;1.38;;;0.50;;
53263;SDS011;39153;52.680;6.172;2022-07-11T08:53:54;0.63;;;0.30;;
53263;SDS011;39153;52.680;6.172;2022-07-11T08:56:19;1.90;;;0.38;;
53263;SDS011;39153;52.680;6.172;2022-07-11T08:58:47;0.98;;;0.30;;
53263;SDS011;39153;52.680;6.172;2022-07-11T09:01:15;0.90;;;0.28;;
53263;SDS011;39153;52.680;6.172;2022-07-11T09:03:41;1.13;;;0.40;;
53263;SDS011;39153;52.680;6.172;2022-07-11T09:06:08;2.63;;;0.40;;
53263;SDS011;39153;52.680;6.172;2022-07-11T09:08:35;1.73;;;0.40;;
53263;SDS011;39153;52.680;6.172;2022-07-11T09:11:01;2.15;;;0.50;;
53263;SDS011;39153;52.680;6.172;2022-07-11T09:13:29;2.08;;;0.70;;
53263;SDS011;39153;52.680;6.172;2022-07-11T09:16:02;0.75;;;0.30;;
53263;SDS011;39153;52.680;6.172;2022-07-11T09:18:33;1.52;;;0.40;;
53263;SDS011;39153;52.680;6.172;2022-07-11T09:21:04;0.32;;;0.20;;
53263;SDS011;39153;52.680;6.172;2022-07-11T09:23:49;1.48;;;0.40;;
53263;SDS011;39153;52.680;6.172;2022-07-11T09:26:35;0.75;;;0.30;;
53263;SDS011;39153;52.680;6.172;2022-07-11T09:29:03;0.47;;;0.20;;
53263;SDS011;39153;52.680;6.172;2022-07-11T09:31:30;0.68;;;0.32;;
53263;SDS011;39153;52.680;6.172;2022-07-11T09:34:00;0.75;;;0.25;;
53263;SDS011;39153;52.680;6.172;2022-07-11T09:36:37;0.75;;;0.30;;
53263;SDS011;39153;52.680;6.172;2022-07-11T09:39:08;1.58;;;0.35;;
53263;SDS011;39153;52.680;6.172;2022-07-11T09:41:36;0.95;;;0.30;;
53263;SDS011;39153;52.680;6.172;2022-07-11T09:44:06;1.27;;;0.52;;
53263;SDS011;39153;52.680;6.172;2022-07-11T09:46:35;1.02;;;0.30;;
53263;SDS011;39153;52.680;6.172;2022-07-11T09:49:01;1.60;;;0.40;;
53263;SDS011;39153;52.680;6.172;2022-07-11T09:51:27;1.27;;;0.22;;
53263;SDS011;39153;52.680;6.172;2022-07-11T09:53:54;0.93;;;0.40;;
53263;SDS011;39153;52.680;6.172;2022-07-11T09:56:24;0.98;;;0.30;;
53263;SDS011;39153;52.680;6.172;2022-07-11T09:59:20;0.38;;;0.30;;
53263;SDS011;39153;52.680;6.172;2022-07-11T10:01:47;2.50;;;0.30;;
53263;SDS011;39153;52.680;6.172;2022-07-11T10:04:12;1.42;;;0.40;;
53263;SDS011;39153;52.680;6.172;2022-07-11T10:06:38;0.85;;;0.40;;
53263;SDS011;39153;52.680;6.172;2022-07-11T10:09:04;0.73;;;0.28;;
53263;SDS011;39153;52.680;6.172;2022-07-11T10:11:31;1.02;;;0.40;;
53263;SDS011;39153;52.680;6.172;2022-07-11T10:14:01;0.93;;;0.30;;
53263;SDS011;39153;52.680;6.172;2022-07-11T10:22:22;1.75;;;0.40;;
53263;SDS011;39153;52.680;6.172;2022-07-11T10:25:17;1.50;;;0.60;;
53263;SDS011;39153;52.680;6.172;2022-07-11T10:33:15;0.73;;;0.32;;
53263;SDS011;39153;52.680;6.172;2022-07-11T10:35:42;1.00;;;0.30;;
53263;SDS011;39153;52.680;6.172;2022-07-11T10:38:09;0.98;;;0.40;;
53263;SDS011;39153;52.680;6.172;2022-07-11T10:40:42;0.47;;;0.30;;
53263;SDS011;39153;52.680;6.172;2022-07-11T10:43:35;0.40;;;0.20;;
53263;SDS011;39153;52.680;6.172;2022-07-11T10:46:06;0.55;;;0.20;;
53263;SDS011;39153;52.680;6.172;2022-07-11T10:48:52;1.05;;;0.32;;
53263;SDS011;39153;52.680;6.172;2022-07-11T10:54:04;3.20;;;0.40;;
53263;SDS011;39153;52.680;6.172;2022-07-11T10:56:57;0.45;;;0.25;;
53263;SDS011;39153;52.680;6.172;2022-07-11T10:59:23;1.83;;;0.70;;
53263;SDS011;39153;52.680;6.172;2022-07-11T11:02:08;2.20;;;0.95;;
53263;SDS011;39153;52.680;6.172;2022-07-11T11:04:55;2.17;;;0.98;;
53263;SDS011;39153;52.680;6.172;2022-07-11T11:07:37;0.98;;;0.40;;
53263;SDS011;39153;52.680;6.172;2022-07-11T11:15:32;1.30;;;0.40;;
53263;SDS011;39153;52.680;6.172;2022-07-11T11:23:26;0.73;;;0.22;;
53263;SDS011;39153;52.680;6.172;2022-07-11T11:26:04;1.00;;;0.20;;
53263;SDS011;39153;52.680;6.172;2022-07-11T11:28:32;0.88;;;0.35;;
53263;SDS011;39153;52.680;6.172;2022-07-11T11:31:00;1.08;;;0.20;;
53263;SDS011;39153;52.680;6.172;2022-07-11T11:33:34;0.55;;;0.30;;
53263;SDS011;39153;52.680;6.172;2022-07-11T11:36:02;0.95;;;0.30;;
53263;SDS011;39153;52.680;6.172;2022-07-11T11:38:32;0.30;;;0.20;;
53263;SDS011;39153;52.680;6.172;2022-07-11T11:40:59;0.52;;;0.25;;
53263;SDS011;39153;52.680;6.172;2022-07-11T11:43:25;0.38;;;0.20;;
53263;SDS011;39153;52.680;6.172;2022-07-11T11:45:52;0.32;;;0.20;;
53263;SDS011;39153;52.680;6.172;2022-07-11T11:48:32;1.00;;;0.40;;
53263;SDS011;39153;52.680;6.172;2022-07-11T11:51:03;1.33;;;0.40;;
53263;SDS011;39153;52.680;6.172;2022-07-11T11:53:39;1.17;;;0.30;;
53263;SDS011;39153;52.680;6.172;2022-07-11T11:56:22;1.15;;;0.30;;
53263;SDS011;39153;52.680;6.172;2022-07-11T12:01:40;1.88;;;0.50;;
53263;SDS011;39153;52.680;6.172;2022-07-11T12:04:08;1.33;;;0.57;;
53263;SDS011;39153;52.680;6.172;2022-07-11T12:06:39;1.95;;;0.60;;
53263;SDS011;39153;52.680;6.172;2022-07-11T12:11:34;2.63;;;0.43;;
53263;SDS011;39153;52.680;6.172;2022-07-11T12:14:05;3.15;;;0.50;;
53263;SDS011;39153;52.680;6.172;2022-07-11T12:16:33;1.15;;;0.30;;
53263;SDS011;39153;52.680;6.172;2022-07-11T12:19:10;0.20;;;0.20;;
53263;SDS011;39153;52.680;6.172;2022-07-11T12:21:37;2.08;;;0.30;;
53263;SDS011;39153;52.680;6.172;2022-07-11T12:24:05;0.90;;;0.30;;
53263;SDS011;39153;52.680;6.172;2022-07-11T12:26:34;0.82;;;0.30;;
53263;SDS011;39153;52.680;6.172;2022-07-11T12:29:15;0.70;;;0.20;;
53263;SDS011;39153;52.680;6.172;2022-07-11T12:31:57;0.28;;;0.20;;
53263;SDS011;39153;52.680;6.172;2022-07-11T12:39:33;1.13;;;0.45;;
53263;SDS011;39153;52.680;6.172;2022-07-11T12:42:01;2.22;;;0.50;;
53263;SDS011;39153;52.680;6.172;2022-07-11T12:44:53;1.30;;;0.47;;
53263;SDS011;39153;52.680;6.172;2022-07-11T12:47:33;0.98;;;0.40;;
53263;SDS011;39153;52.680;6.172;2022-07-11T12:50:17;2.17;;;0.50;;
53263;SDS011;39153;52.680;6.172;2022-07-11T12:52:51;2.28;;;0.30;;
53263;SDS011;39153;52.680;6.172;2022-07-11T12:55:25;0.22;;;0.20;;
53263;SDS011;39153;52.680;6.172;2022-07-11T12:58:12;0.50;;;0.20;;
53263;SDS011;39153;52.680;6.172;2022-07-11T13:03:32;0.50;;;0.20;;
53263;SDS011;39153;52.680;6.172;2022-07-11T13:06:00;1.05;;;0.32;;
53263;SDS011;39153;52.680;6.172;2022-07-11T13:08:29;0.57;;;0.32;;
53263;SDS011;39153;52.680;6.172;2022-07-11T13:11:10;1.05;;;0.30;;
53263;SDS011;39153;52.680;6.172;2022-07-11T13:13:37;1.05;;;0.30;;
53263;SDS011;39153;52.680;6.172;2022-07-11T13:16:03;1.05;;;0.40;;
53263;SDS011;39153;52.680;6.172;2022-07-11T13:18:30;0.80;;;0.30;;
53263;SDS011;39153;52.680;6.172;2022-07-11T13:20:57;1.30;;;0.38;;
53263;SDS011;39153;52.680;6.172;2022-07-11T13:23:23;0.88;;;0.30;;
53263;SDS011;39153;52.680;6.172;2022-07-11T13:25:48;1.55;;;0.55;;
53263;SDS011;39153;52.680;6.172;2022-07-11T13:28:14;3.35;;;0.47;;
53263;SDS011;39153;52.680;6.172;2022-07-11T13:30:40;1.15;;;0.40;;
53263;SDS011;39153;52.680;6.172;2022-07-11T13:33:06;1.15;;;0.40;;
53263;SDS011;39153;52.680;6.172;2022-07-11T13:35:32;0.63;;;0.30;;
53263;SDS011;39153;52.680;6.172;2022-07-11T13:37:58;0.65;;;0.30;;
53263;SDS011;39153;52.680;6.172;2022-07-11T13:40:24;0.85;;;0.32;;
53263;SDS011;39153;52.680;6.172;2022-07-11T13:42:51;1.15;;;0.30;;
53263;SDS011;39153;52.680;6.172;2022-07-11T13:45:18;1.70;;;0.45;;
53263;SDS011;39153;52.680;6.172;2022-07-11T13:47:46;0.30;;;0.15;;
53263;SDS011;39153;52.680;6.172;2022-07-11T13:50:13;0.85;;;0.20;;
53263;SDS011;39153;52.680;6.172;2022-07-11T13:52:39;1.67;;;0.50;;
53263;SDS011;39153;52.680;6.172;2022-07-11T13:55:05;1.80;;;0.50;;
53263;SDS011;39153;52.680;6.172;2022-07-11T13:57:31;0.60;;;0.30;;
53263;SDS011;39153;52.680;6.172;2022-07-11T13:59:59;0.80;;;0.20;;
53263;SDS011;39153;52.680;6.172;2022-07-11T14:02:26;0.77;;;0.30;;
53263;SDS011;39153;52.680;6.172;2022-07-11T14:04:55;1.60;;;0.50;;
53263;SDS011;39153;52.680;6.172;2022-07-11T14:07:20;0.65;;;0.30;;
53263;SDS011;39153;52.680;6.172;2022-07-11T14:09:46;1.08;;;0.30;;
53263;SDS011;39153;52.680;6.172;2022-07-11T14:12:12;2.55;;;0.52;;
53263;SDS011;39153;52.680;6.172;2022-07-11T14:14:38;0.82;;;0.38;;
53263;SDS011;39153;52.680;6.172;2022-07-11T14:17:03;1.23;;;0.22;;
53263;SDS011;39153;52.680;6.172;2022-07-11T14:19:30;0.50;;;0.40;;
53263;SDS011;39153;52.680;6.172;2022-07-11T14:21:57;0.85;;;0.40;;
53263;SDS011;39153;52.680;6.172;2022-07-11T14:24:24;0.68;;;0.30;;
53263;SDS011;39153;52.680;6.172;2022-07-11T14:26:51;1.55;;;0.50;;
53263;SDS011;39153;52.680;6.172;2022-07-11T14:29:17;1.27;;;0.40;;
53263;SDS011;39153;52.680;6.172;2022-07-11T14:31:43;0.82;;;0.32;;
53263;SDS011;39153;52.680;6.172;2022-07-11T14:34:09;2.30;;;0.50;;
53263;SDS011;39153;52.680;6.172;2022-07-11T14:36:35;1.38;;;0.30;;
53263;SDS011;39153;52.680;6.172;2022-07-11T14:39:01;0.80;;;0.43;;
53263;SDS011;39153;52.680;6.172;2022-07-11T14:41:27;0.65;;;0.30;;
53263;SDS011;39153;52.680;6.172;2022-07-11T14:43:53;0.75;;;0.30;;
53263;SDS011;39153;52.680;6.172;2022-07-11T14:46:18;0.63;;;0.40;;
53263;SDS011;39153;52.680;6.172;2022-07-11T14:48:46;0.60;;;0.40;;
53263;SDS011;39153;52.680;6.172;2022-07-11T14:51:12;0.85;;;0.38;;
53263;SDS011;39153;52.680;6.172;2022-07-11T14:53:38;2.25;;;0.30;;
53263;SDS011;39153;52.680;6.172;2022-07-11T14:56:04;0.90;;;0.40;;
53263;SDS011;39153;52.680;6.172;2022-07-11T14:58:30;0.93;;;0.35;;
53263;SDS011;39153;52.680;6.172;2022-07-11T15:00:55;4.60;;;0.32;;
53263;SDS011;39153;52.680;6.172;2022-07-11T15:03:21;1.48;;;0.35;;
53263;SDS011;39153;52.680;6.172;2022-07-11T15:06:25;0.45;;;0.30;;
53263;SDS011;39153;52.680;6.172;2022-07-11T15:09:09;1.00;;;0.40;;
53263;SDS011;39153;52.680;6.172;2022-07-11T15:11:54;0.63;;;0.40;;
53263;SDS011;39153;52.680;6.172;2022-07-11T15:14:38;1.20;;;0.28;;
53263;SDS011;39153;52.680;6.172;2022-07-11T15:17:04;0.65;;;0.32;;
53263;SDS011;39153;52.680;6.172;2022-07-11T15:19:30;1.08;;;0.30;;
53263;SDS011;39153;52.680;6.172;2022-07-11T15:21:55;1.90;;;0.50;;
53263;SDS011;39153;52.680;6.172;2022-07-11T15:24:21;0.85;;;0.30;;
53263;SDS011;39153;52.680;6.172;2022-07-11T15:26:47;0.82;;;0.30;;
53263;SDS011;39153;52.680;6.172;2022-07-11T15:29:12;0.52;;;0.30;;
53263;SDS011;39153;52.680;6.172;2022-07-11T15:31:38;0.60;;;0.30;;